createdAt,value
2018-06-05T00:00:12.499Z,97415.91
2018-06-05T00:02:43.118Z,97420.54
2018-06-05T00:05:13.041Z,97423.48
2018-06-05T00:07:43.181Z,97421.33
2018-06-05T00:10:15.193Z,97419.83
2018-06-05T00:12:45.850Z,97414.22
2018-06-05T00:15:15.760Z,97418.83
2018-06-05T00:17:45.773Z,97417.65
2018-06-05T00:20:15.791Z,97430.02
2018-06-05T00:22:45.705Z,97426.54
2018-06-05T00:28:13.153Z,97427.97
2018-06-05T00:30:44.940Z,97424.28
2018-06-05T00:33:15.738Z,97434.17
2018-06-05T00:35:47.229Z,97435.25
2018-06-05T00:38:21.849Z,97434.20
2018-06-05T00:40:52.801Z,97431.00
2018-06-05T00:43:23.004Z,97435.41
2018-06-05T00:45:53.273Z,97392.09
2018-06-05T00:48:24.629Z,97438.55
2018-06-05T00:50:57.366Z,97437.36
2018-06-05T00:53:27.355Z,97450.27
2018-06-05T00:55:59.959Z,97449.66
2018-06-05T00:59:33.453Z,97455.08
2018-06-05T01:02:04.093Z,97450.55
2018-06-05T01:04:39.037Z,97451.65
2018-06-05T01:07:20.288Z,97455.78
2018-06-05T01:10:03.117Z,97447.49
2018-06-05T01:12:38.156Z,97458.47
2018-06-05T01:15:08.279Z,97457.33
2018-06-05T01:17:46.125Z,97456.27
2018-06-05T01:20:17.000Z,97459.52
2018-06-05T01:22:47.659Z,97461.33
2018-06-05T01:25:17.952Z,97461.69
2018-06-05T01:28:50.759Z,97465.42
2018-06-05T01:34:25.408Z,97461.86
2018-06-05T01:36:55.834Z,97461.95
2018-06-05T01:39:40.564Z,97463.27
2018-06-05T01:42:11.539Z,97462.29
2018-06-05T01:44:44.358Z,97458.46
2018-06-05T01:47:14.574Z,97459.55
2018-06-05T01:49:44.976Z,97458.99
2018-06-05T01:52:17.168Z,97454.50
2018-06-05T01:54:49.440Z,97460.27
2018-06-05T01:57:20.832Z,97461.77
2018-06-05T01:59:51.604Z,97461.36
2018-06-05T02:02:25.405Z,97460.16
2018-06-05T02:04:56.378Z,97459.55
2018-06-05T02:07:28.408Z,97467.30
2018-06-05T02:09:59.348Z,97464.23
2018-06-05T02:12:31.493Z,97467.91
2018-06-05T02:15:01.701Z,97463.58
2018-06-05T02:17:32.298Z,97459.27
2018-06-05T02:20:02.391Z,97458.98
2018-06-05T02:22:34.832Z,97460.11
2018-06-05T02:25:04.994Z,97452.44
2018-06-05T02:27:35.592Z,97458.44
2018-06-05T02:33:03.146Z,97459.69
2018-06-05T02:35:34.424Z,97455.48
2018-06-05T02:40:58.188Z,97464.54
2018-06-05T02:43:29.727Z,97460.20
2018-06-05T02:45:59.792Z,97462.19
2018-06-05T02:48:30.053Z,97463.43
2018-06-05T02:51:34.432Z,97465.88
2018-06-05T02:54:04.516Z,97468.71
2018-06-05T02:56:35.089Z,97468.55
2018-06-05T02:59:05.226Z,97472.38
2018-06-05T03:01:35.152Z,97471.92
2018-06-05T03:04:06.798Z,97473.30
2018-06-05T03:06:36.910Z,97480.68
2018-06-05T03:09:09.138Z,97483.59
2018-06-05T03:11:40.755Z,97487.03
2018-06-05T03:14:11.349Z,97480.98
2018-06-05T03:16:41.801Z,97490.38
2018-06-05T03:19:13.889Z,97486.11
2018-06-05T03:21:43.881Z,97491.30
2018-06-05T03:24:13.879Z,97493.71
2018-06-05T03:28:05.554Z,97490.95
2018-06-05T03:33:32.452Z,97504.86
2018-06-05T03:36:04.072Z,97495.80
2018-06-05T03:38:35.177Z,97498.16
2018-06-05T03:41:08.801Z,97500.97
2018-06-05T03:43:39.398Z,97507.09
2018-06-05T03:49:15.923Z,97514.42
2018-06-05T03:52:00.135Z,97510.81
2018-06-05T03:54:30.366Z,97510.84
2018-06-05T03:59:46.673Z,97514.42
2018-06-05T04:05:02.126Z,97516.42
2018-06-05T04:08:24.449Z,97514.11
2018-06-05T04:13:53.936Z,97509.47
2018-06-05T04:16:35.599Z,97513.68
2018-06-05T04:19:15.861Z,97519.27
2018-06-05T04:21:46.641Z,97518.59
2018-06-05T04:24:27.927Z,97521.36
2018-06-05T04:27:02.229Z,97520.77
2018-06-05T04:29:44.972Z,97523.77
2018-06-05T04:34:51.328Z,97523.23
2018-06-05T04:37:23.549Z,97528.43
2018-06-05T04:39:54.502Z,97530.98
2018-06-05T04:42:25.027Z,97528.88
2018-06-05T04:44:58.181Z,97532.94
2018-06-05T04:47:32.782Z,97540.86
2018-06-05T04:50:08.225Z,97536.52
2018-06-05T04:52:42.103Z,97542.08
2018-06-05T04:55:14.200Z,97540.59
2018-06-05T04:57:44.152Z,97542.70
2018-06-05T05:00:15.249Z,97542.86
2018-06-05T05:02:46.695Z,97548.20
2018-06-05T05:05:16.573Z,97549.44
2018-06-05T05:07:47.048Z,97554.34
2018-06-05T05:10:18.369Z,97555.18
2018-06-05T05:12:48.329Z,97550.38
2018-06-05T05:15:19.473Z,97552.78
2018-06-05T05:17:50.713Z,97554.02
2018-06-05T05:20:21.017Z,97557.98
2018-06-05T05:22:51.102Z,97551.95
2018-06-05T05:25:30.629Z,97556.36
2018-06-05T05:28:00.531Z,97556.77
2018-06-05T05:30:30.529Z,97559.12
2018-06-05T05:33:04.369Z,97559.06
2018-06-05T05:35:34.561Z,97567.75
2018-06-05T05:38:05.195Z,97569.84
2018-06-05T05:40:35.486Z,97571.95
2018-06-05T05:43:07.153Z,97568.86
2018-06-05T05:45:37.746Z,97572.27
2018-06-05T05:50:57.821Z,97575.09
2018-06-05T05:53:27.677Z,97581.08
2018-06-05T05:55:57.827Z,97575.35
2018-06-05T05:58:28.821Z,97571.78
2018-06-05T06:00:58.863Z,97574.16
2018-06-05T06:03:28.674Z,97571.88
2018-06-05T06:05:59.818Z,97571.73
2018-06-05T06:08:29.643Z,97572.41
2018-06-05T06:11:01.182Z,97571.92
2018-06-05T06:13:31.137Z,97572.28
2018-06-05T06:16:02.132Z,97567.64
2018-06-05T06:18:32.262Z,97573.29
2018-06-05T06:29:34.936Z,97567.59
2018-06-05T06:34:43.442Z,97578.13
2018-06-05T06:37:22.137Z,97579.34
2018-06-05T06:39:52.869Z,97579.59
2018-06-05T06:42:23.703Z,97575.88
2018-06-05T06:44:55.324Z,97584.12
2018-06-05T06:47:28.503Z,97586.34
2018-06-05T06:49:58.779Z,97584.97
2018-06-05T06:52:28.695Z,97587.20
2018-06-05T06:54:58.755Z,97596.77
2018-06-05T06:57:28.681Z,97592.50
2018-06-05T06:59:59.569Z,97579.79
2018-06-05T07:02:29.579Z,97591.47
2018-06-05T07:05:06.050Z,97593.64
2018-06-05T07:07:36.024Z,97590.98
2018-06-05T07:10:06.087Z,97594.33
2018-06-05T07:12:36.058Z,97591.56
2018-06-05T07:17:49.941Z,97586.84
2018-06-05T07:20:20.745Z,97592.71
2018-06-05T07:25:31.794Z,97585.78
2018-06-05T07:28:32.828Z,97592.23
2018-06-05T07:33:39.575Z,97593.95
2018-06-05T07:41:42.193Z,97596.84
2018-06-05T07:44:23.154Z,97596.22
2018-06-05T07:46:54.274Z,97592.36
2018-06-05T07:49:31.280Z,97589.69
2018-06-05T07:52:01.811Z,97590.84
2018-06-05T07:54:33.891Z,97590.54
2018-06-05T07:59:45.143Z,97583.78
2018-06-05T08:02:22.775Z,97588.30
2018-06-05T08:04:54.956Z,97599.02
2018-06-05T08:07:31.530Z,97598.52
2018-06-05T08:10:10.193Z,97593.62
2018-06-05T08:12:49.381Z,97590.38
2018-06-05T08:15:35.395Z,97595.54
2018-06-05T08:18:40.340Z,97595.00
2018-06-05T08:21:16.313Z,97600.84
2018-06-05T08:27:03.244Z,97606.74
2018-06-05T08:29:37.885Z,97600.72
2018-06-05T08:32:23.941Z,97601.00
2018-06-05T08:34:56.981Z,97601.83
2018-06-05T08:40:53.495Z,97593.68
2018-06-05T08:43:24.054Z,97598.31
2018-06-05T08:45:59.736Z,97606.53
2018-06-05T08:48:32.254Z,97601.75
2018-06-05T08:51:04.515Z,97608.09
2018-06-05T09:00:02.452Z,97609.88
2018-06-05T09:02:39.663Z,97606.36
2018-06-05T09:05:22.200Z,97604.05
2018-06-05T09:10:40.500Z,97616.03
2018-06-05T09:13:11.030Z,97608.34
2018-06-05T09:15:41.041Z,97612.19
2018-06-05T09:30:28.866Z,97605.38
2018-06-05T09:33:00.440Z,97602.25
2018-06-05T09:35:33.899Z,97607.82
2018-06-05T09:38:04.595Z,97606.98
2018-06-05T09:40:38.166Z,97603.59
2018-06-05T09:43:08.810Z,97601.59
2018-06-05T09:45:43.771Z,97601.89
2018-06-05T09:48:13.780Z,97606.86
2018-06-05T09:50:46.600Z,97611.89
2018-06-05T09:53:17.771Z,97618.23
2018-06-05T09:55:48.296Z,97615.63
2018-06-05T10:14:53.382Z,97605.23
2018-06-05T10:17:24.460Z,97612.70
2018-06-05T10:23:46.413Z,97608.63
2018-06-05T10:26:16.645Z,97605.73
2018-06-05T10:28:49.118Z,97604.16
2018-06-05T10:31:25.440Z,97605.88
2018-06-05T10:33:57.629Z,97593.17
2018-06-05T10:36:39.048Z,97597.20
2018-06-05T10:39:43.248Z,97602.36
2018-06-05T10:42:15.209Z,97589.42
2018-06-05T10:44:50.139Z,97591.47
2018-06-05T10:47:21.708Z,97599.56
2018-06-05T10:52:53.367Z,97588.77
2018-06-05T10:55:43.034Z,97591.19
2018-06-05T11:00:57.217Z,97585.74
2018-06-05T11:03:31.327Z,97583.12
2018-06-05T11:06:05.091Z,97580.20
2018-06-05T11:08:36.196Z,97572.98
2018-06-05T11:11:11.308Z,97569.08
2018-06-05T11:13:44.976Z,97559.68
2018-06-05T11:16:15.854Z,97560.29
2018-06-05T11:18:46.226Z,97553.94
2018-06-05T11:21:29.930Z,97554.23
2018-06-05T11:24:01.335Z,97544.92
2018-06-05T11:29:33.656Z,97543.40
2018-06-05T11:32:06.439Z,97553.77
2018-06-05T11:34:37.383Z,97541.33
2018-06-05T11:37:10.456Z,97539.91
2018-06-05T11:39:41.438Z,97531.47
2018-06-05T11:42:12.265Z,97530.06
2018-06-05T11:44:43.445Z,97538.28
2018-06-05T11:47:14.865Z,97537.48
2018-06-05T11:50:15.169Z,97547.70
2018-06-05T11:52:51.157Z,97545.14
2018-06-05T11:55:28.433Z,97543.66
2018-06-05T12:04:34.790Z,97539.49
2018-06-05T12:07:06.348Z,97529.17
2018-06-05T12:09:37.725Z,97528.78
2018-06-05T12:12:08.783Z,97519.50
2018-06-05T12:14:41.892Z,97517.61
2018-06-05T12:17:13.484Z,97502.98
2018-06-05T12:19:50.576Z,97512.95
2018-06-05T12:22:23.103Z,97519.17
2018-06-05T12:24:54.638Z,97522.78
2018-06-05T12:27:34.626Z,97523.55
2018-06-05T12:30:06.229Z,97535.31
2018-06-05T12:32:37.785Z,97529.91
2018-06-05T12:35:10.693Z,97534.44
2018-06-05T12:37:42.202Z,97521.14
2018-06-05T12:40:13.460Z,97517.38
2018-06-05T12:42:47.490Z,97519.93
2018-06-05T12:45:19.117Z,97510.53
2018-06-05T12:47:51.822Z,97499.31
2018-06-05T12:50:24.552Z,97500.19
2018-06-05T12:52:59.484Z,97492.78
2018-06-05T12:55:35.139Z,97497.00
2018-06-05T13:03:45.947Z,97477.52
2018-06-05T13:06:19.024Z,97475.95
2018-06-05T13:11:39.364Z,97468.23
2018-06-05T13:14:35.730Z,97462.30
2018-06-05T13:17:24.579Z,97455.25
2018-06-05T13:19:59.284Z,97458.94
2018-06-05T13:22:32.256Z,97458.81
2018-06-05T13:25:02.933Z,97462.03
2018-06-05T13:27:35.546Z,97451.62
2018-06-05T13:30:08.958Z,97444.91
2018-06-05T13:32:46.322Z,97455.02
2018-06-05T13:35:21.211Z,97460.41
2018-06-05T13:38:07.159Z,97451.30
2018-06-05T13:40:38.305Z,97454.58
2018-06-05T13:43:08.979Z,97445.86
2018-06-05T13:45:50.218Z,97449.26
2018-06-05T13:48:21.476Z,97445.88
2018-06-05T13:50:57.615Z,97445.55
2018-06-05T13:53:29.255Z,97440.67
2018-06-05T13:55:59.842Z,97446.09
2018-06-05T13:58:42.495Z,97433.01
2018-06-05T14:01:13.146Z,97437.41
2018-06-05T14:03:43.470Z,97439.80
2018-06-05T14:06:13.436Z,97439.22
2018-06-05T14:08:44.096Z,97443.02
2018-06-05T14:11:19.318Z,97433.70
2018-06-05T14:13:49.401Z,97447.77
2018-06-05T14:16:19.994Z,97445.02
2018-06-05T14:18:50.802Z,97445.94
2018-06-05T14:21:22.533Z,97446.53
2018-06-05T14:23:52.677Z,97454.36
2018-06-05T14:26:22.473Z,97448.22
2018-06-05T14:28:54.301Z,97449.44
2018-06-05T14:31:27.922Z,97448.09
2018-06-05T14:33:57.842Z,97450.02
2018-06-05T14:36:28.076Z,97452.56
2018-06-05T14:38:59.213Z,97447.08
2018-06-05T14:41:29.902Z,97434.92
2018-06-05T14:44:00.628Z,97430.34
2018-06-05T14:46:44.435Z,97423.53
2018-06-05T14:49:18.648Z,97426.09
2018-06-05T14:51:50.317Z,97416.28
2018-06-05T14:54:20.414Z,97419.02
2018-06-05T14:56:50.652Z,97417.66
2018-06-05T14:59:20.692Z,97421.59
2018-06-05T15:01:55.455Z,97418.27
2018-06-05T15:04:29.508Z,97416.65
2018-06-05T15:07:08.370Z,97414.86
2018-06-05T15:09:45.856Z,97409.97
2018-06-05T15:12:19.510Z,97413.38
2018-06-05T15:14:53.625Z,97418.71
2018-06-05T15:17:23.967Z,97405.95
2018-06-05T15:19:54.583Z,97406.77
2018-06-05T15:22:25.235Z,97414.53
2018-06-05T15:24:58.530Z,97418.36
2018-06-05T15:27:35.545Z,97403.55
2018-06-05T15:30:06.686Z,97415.95
2018-06-05T15:32:38.661Z,97417.81
2018-06-05T15:35:10.858Z,97415.69
2018-06-05T15:37:44.688Z,97414.30
2018-06-05T15:40:23.390Z,97414.73
2018-06-05T15:42:58.740Z,97408.69
2018-06-05T15:45:29.920Z,97399.39
2018-06-05T15:48:06.895Z,97394.80
2018-06-05T15:50:51.612Z,97402.00
2018-06-05T15:53:22.519Z,97409.33
2018-06-05T15:55:53.914Z,97416.91
2018-06-05T15:58:30.279Z,97414.58
2018-06-05T16:01:01.738Z,97408.39
2018-06-05T16:03:36.461Z,97402.23
2018-06-05T16:06:09.150Z,97405.31
2018-06-05T16:08:39.276Z,97415.98
2018-06-05T16:11:12.104Z,97414.86
2018-06-05T16:13:41.947Z,97418.16
2018-06-05T16:16:14.750Z,97417.26
2018-06-05T16:18:45.710Z,97407.61
2018-06-05T16:21:16.820Z,97410.53
2018-06-05T16:23:53.521Z,97407.23
2018-06-05T16:26:25.992Z,97404.20
2018-06-05T16:28:58.333Z,97402.56
2018-06-05T16:31:30.689Z,97389.48
2018-06-05T16:34:20.028Z,97395.56
2018-06-05T16:36:54.247Z,97393.45
2018-06-05T16:39:25.172Z,97404.83
2018-06-05T16:41:56.181Z,97401.03
2018-06-05T16:44:27.773Z,97390.81
2018-06-05T16:46:57.844Z,97400.95
2018-06-05T16:49:31.099Z,97397.36
2018-06-05T16:52:12.208Z,97396.82
2018-06-05T16:54:45.092Z,97404.95
2018-06-05T16:57:26.108Z,97398.61
2018-06-05T16:59:57.335Z,97393.66
2018-06-05T17:02:30.713Z,97390.03
2018-06-05T17:05:02.967Z,97398.53
2018-06-05T17:10:49.197Z,97403.63
2018-06-05T17:13:24.572Z,97401.58
2018-06-05T17:15:57.147Z,97403.81
2018-06-05T17:18:27.750Z,97401.10
2018-06-05T17:21:00.187Z,97399.36
2018-06-05T17:23:32.914Z,97393.68
2018-06-05T17:26:08.586Z,97393.34
2018-06-05T17:28:43.863Z,97396.02
2018-06-05T17:31:15.404Z,97383.67
2018-06-05T17:33:54.057Z,97386.48
2018-06-05T17:36:25.743Z,97391.19
2018-06-05T17:38:58.212Z,97390.69
2018-06-05T17:41:47.659Z,97389.92
2018-06-05T17:44:21.088Z,97386.96
2018-06-05T17:46:53.168Z,97389.15
2018-06-05T17:49:23.358Z,97379.57
2018-06-05T17:51:55.899Z,97384.75
2018-06-05T17:54:26.626Z,97385.41
2018-06-05T17:56:57.311Z,97387.75
2018-06-05T17:59:27.961Z,97392.02
2018-06-05T18:02:02.631Z,97394.31
2018-06-05T18:04:34.619Z,97391.02
2018-06-05T18:07:10.488Z,97399.92
2018-06-05T18:12:44.799Z,97398.59
2018-06-05T18:15:21.137Z,97396.03
2018-06-05T18:18:01.235Z,97397.31
2018-06-05T18:20:31.507Z,97408.09
2018-06-05T18:23:02.600Z,97404.47
2018-06-05T18:28:02.847Z,97403.72
2018-06-05T18:33:49.715Z,97414.08
2018-06-05T18:36:21.626Z,97408.70
2018-06-05T18:38:54.403Z,97418.49
2018-06-05T18:41:45.505Z,97416.03
2018-06-05T18:44:24.150Z,97412.81
2018-06-05T18:46:59.484Z,97421.11
2018-06-05T18:49:35.177Z,97426.89
2018-06-05T18:52:12.719Z,97425.34
2018-06-05T18:54:48.696Z,97432.29
2018-06-05T18:57:24.806Z,97430.70
2018-06-05T19:00:03.663Z,97433.01
2018-06-05T19:02:38.179Z,97438.67
2018-06-05T19:05:14.193Z,97435.06
2018-06-05T19:07:47.973Z,97443.47
2018-06-05T19:10:20.995Z,97448.09
2018-06-05T19:12:57.655Z,97458.36
2018-06-05T19:15:31.112Z,97463.36
2018-06-05T19:18:02.511Z,97467.78
2018-06-05T19:23:36.530Z,97479.34
2018-06-05T19:26:24.653Z,97488.08
2018-06-05T19:29:00.643Z,97492.64
2018-06-05T19:31:32.783Z,97497.71
2018-06-05T19:34:19.495Z,97502.93
2018-06-05T19:36:52.463Z,97480.55
2018-06-05T19:39:39.190Z,97506.78
2018-06-05T19:42:16.797Z,97512.09
2018-06-05T19:44:50.780Z,97518.73
2018-06-05T19:47:26.469Z,97528.41
2018-06-05T19:49:58.673Z,97535.89
2018-06-05T19:52:31.840Z,97532.77
2018-06-05T19:55:07.747Z,97534.95
2018-06-05T19:57:44.213Z,97543.23
2018-06-05T20:00:17.506Z,97538.77
2018-06-05T20:02:56.917Z,97534.81
2018-06-05T20:06:35.821Z,97543.42
2018-06-05T20:09:12.971Z,97541.47
2018-06-05T20:11:49.262Z,97550.70
2018-06-05T20:14:20.596Z,97551.36
2018-06-05T20:17:12.663Z,97552.36
2018-06-05T20:19:49.599Z,97556.84
2018-06-05T20:22:23.178Z,97546.05
2018-06-05T20:25:03.552Z,97559.99
2018-06-05T20:27:39.894Z,97557.66
2018-06-05T20:30:15.805Z,97557.66
2018-06-05T20:32:47.950Z,97559.65
2018-06-05T20:35:26.342Z,97431.89
2018-06-05T20:37:59.662Z,97562.61
2018-06-05T20:40:33.329Z,97557.95
2018-06-05T20:57:42.110Z,97558.88
2018-06-05T21:00:42.497Z,97566.35
2018-06-05T21:03:20.469Z,97569.33
2018-06-05T21:05:55.210Z,97573.45
2018-06-05T21:08:30.022Z,97569.47
2018-06-05T21:11:29.079Z,97568.47
2018-06-05T21:17:07.334Z,97570.71
2018-06-05T21:20:07.825Z,97572.02
2018-06-05T21:22:43.588Z,97574.20
2018-06-05T21:25:26.263Z,97575.95
2018-06-05T21:27:57.290Z,97574.28
2018-06-05T21:30:29.242Z,97573.66
2018-06-05T21:33:11.478Z,97573.28
2018-06-05T21:36:46.826Z,97571.58
2018-06-05T21:39:20.312Z,97571.43
2018-06-05T21:42:16.621Z,97575.58
2018-06-05T21:49:26.456Z,97572.38
2018-06-05T21:52:00.481Z,97572.20
2018-06-05T21:54:33.618Z,97568.19
2018-06-05T21:57:04.656Z,97570.45
2018-06-05T22:06:46.886Z,97575.04
2018-06-05T22:09:49.138Z,97572.36
2018-06-05T22:12:21.865Z,97575.44
2018-06-05T22:14:54.380Z,97569.70
2018-06-05T22:17:39.738Z,97569.49
2018-06-05T22:28:31.667Z,97575.70
2018-06-05T22:31:05.617Z,97573.89
2018-06-05T22:33:53.587Z,97578.17
2018-06-05T23:39:23.377Z,97580.03
2018-06-05T23:41:59.021Z,97578.00
2018-06-05T23:44:31.140Z,97575.52
2018-06-05T23:47:09.789Z,97579.67
2018-06-05T23:49:52.533Z,97571.08
2018-06-05T23:52:25.363Z,97574.67
2018-06-05T23:55:01.970Z,97578.95
2018-06-05T23:57:33.467Z,97578.23
